Time;durP1;ratioP1;P1;durP2;ratioP2;P2;SDS_P1;SDS_P2;PMS_P1;PMS_P2;Temp;Humidity;BMP_temperature;BMP_pressure;BME280_temperature;BME280_humidity;BME280_pressure;Samples;Min_cycle;Max_cycle;Signal;HPM_P1;HPM_P2
2023/12/01 00:01:50;;;;;;;12.68;7.25;;;3.00;87.50;;;;;;4993698;28;20019;-77
2023/12/01 00:04:16;;;;;;;10.43;6.78;;;3.00;87.50;;;;;;4993598;28;20438;-77
2023/12/01 00:06:41;;;;;;;9.43;6.68;;;3.00;87.50;;;;;;4993645;28;20545;-77
2023/12/01 00:09:07;;;;;;;11.73;7.82;;;3.00;87.50;;;;;;4993518;28;20487;-75
2023/12/01 00:11:32;;;;;;;10.35;7.45;;;3.00;87.20;;;;;;4993435;28;20475;-75
2023/12/01 00:13:58;;;;;;;13.10;9.07;;;3.00;87.10;;;;;;4993415;28;20043;-75
2023/12/01 00:16:23;;;;;;;12.68;9.15;;;3.00;87.10;;;;;;4993391;28;20392;-75
2023/12/01 00:18:49;;;;;;;15.10;10.05;;;3.00;87.20;;;;;;4993567;28;20069;-76
2023/12/01 00:21:14;;;;;;;14.15;9.98;;;3.00;87.20;;;;;;4993526;28;20030;-75
2023/12/01 00:23:40;;;;;;;12.98;9.07;;;3.00;86.90;;;;;;4993523;28;20030;-76
2023/12/01 00:26:06;;;;;;;11.95;9.52;;;3.00;87.00;;;;;;4993446;28;20031;-75
2023/12/01 00:28:31;;;;;;;13.80;9.95;;;3.00;87.10;;;;;;4994796;28;20101;-75
2023/12/01 00:30:57;;;;;;;11.45;8.60;;;3.00;87.00;;;;;;4997505;28;20037;-75
2023/12/01 00:33:22;;;;;;;11.40;9.23;;;3.00;87.00;;;;;;4997393;28;20026;-75
2023/12/01 00:35:48;;;;;;;12.25;9.95;;;3.10;87.00;;;;;;4997480;28;20356;-75
2023/12/01 00:38:13;;;;;;;11.25;8.77;;;3.10;86.90;;;;;;4997382;28;20157;-75
2023/12/01 00:40:39;;;;;;;11.55;9.05;;;3.10;86.70;;;;;;4979931;28;20076;-76
2023/12/01 00:43:05;;;;;;;11.30;8.98;;;3.20;86.60;;;;;;4997216;28;20109;-76
2023/12/01 00:45:30;;;;;;;11.93;8.98;;;3.20;86.50;;;;;;4997276;28;20545;-76
2023/12/01 00:47:56;;;;;;;14.40;10.90;;;3.20;86.20;;;;;;4997162;28;20495;-76
2023/12/01 00:50:21;;;;;;;13.38;11.32;;;3.20;86.20;;;;;;4997222;28;20549;-76
2023/12/01 00:52:47;;;;;;;16.63;12.55;;;3.20;86.10;;;;;;4997124;28;20023;-76
2023/12/01 00:55:12;;;;;;;16.80;11.75;;;3.20;86.00;;;;;;4997050;28;20062;-76
2023/12/01 00:57:38;;;;;;;13.82;10.63;;;3.20;85.90;;;;;;4996877;28;20030;-77
2023/12/01 01:00:04;;;;;;;13.45;10.48;;;3.20;85.80;;;;;;4997039;28;20022;-76
2023/12/01 01:02:31;;;;;;;16.80;10.88;;;3.20;85.80;;;;;;4997063;28;20054;-77
2023/12/01 01:04:56;;;;;;;14.75;11.95;;;3.20;85.70;;;;;;4996595;28;20392;-77
2023/12/01 01:07:22;;;;;;;13.85;11.00;;;3.10;85.60;;;;;;4996934;28;20015;-77
2023/12/01 01:09:47;;;;;;;17.45;12.85;;;3.00;85.50;;;;;;4996906;28;20030;-78
2023/12/01 01:12:13;;;;;;;14.32;10.90;;;3.00;85.70;;;;;;4996649;28;20030;-78
2023/12/01 01:14:39;;;;;;;15.52;11.48;;;2.90;85.70;;;;;;4996814;28;20105;-79
2023/12/01 01:17:04;;;;;;;16.58;10.93;;;2.90;85.80;;;;;;4996629;28;20472;-78
2023/12/01 01:19:30;;;;;;;14.40;10.80;;;2.90;85.90;;;;;;4996774;28;20487;-77
2023/12/01 01:21:56;;;;;;;16.63;11.85;;;2.90;86.00;;;;;;4996468;28;20475;-77
2023/12/01 01:24:22;;;;;;;18.13;12.68;;;2.80;86.00;;;;;;4996343;28;20062;-79
2023/12/01 01:26:47;;;;;;;17.85;13.07;;;2.80;86.10;;;;;;4996660;28;20031;-80
2023/12/01 01:29:13;;;;;;;17.65;11.85;;;2.70;86.40;;;;;;4996267;28;20034;-76
2023/12/01 01:31:38;;;;;;;18.00;14.05;;;2.70;86.50;;;;;;4978914;28;20018;-76
2023/12/01 01:34:04;;;;;;;18.52;12.90;;;2.70;86.60;;;;;;4996331;28;20022;-77
2023/12/01 01:36:29;;;;;;;18.10;13.18;;;2.80;86.50;;;;;;4996325;28;20022;-78
2023/12/01 01:38:55;;;;;;;18.05;13.68;;;2.80;86.40;;;;;;4995935;28;20071;-77
2023/12/01 01:41:21;;;;;;;17.00;13.20;;;2.80;86.30;;;;;;4996281;28;20109;-79
2023/12/01 01:43:46;;;;;;;17.83;13.55;;;2.80;86.20;;;;;;4996381;28;20025;-78
2023/12/01 01:46:14;;;;;;;17.15;13.32;;;2.90;86.30;;;;;;4996218;28;20026;-78
2023/12/01 01:48:42;;;;;;;17.42;13.32;;;2.90;86.20;;;;;;4996062;28;20098;-80
2023/12/01 01:51:09;;;;;;;18.23;13.82;;;2.90;86.90;;;;;;4995978;28;20018;-77
2023/12/01 01:53:37;;;;;;;18.35;14.00;;;2.90;86.00;;;;;;4995946;28;20026;-77
2023/12/01 01:56:03;;;;;;;19.70;13.40;;;2.90;85.80;;;;;;4996115;28;20117;-77
2023/12/01 01:58:29;;;;;;;19.33;13.88;;;2.80;85.90;;;;;;4995996;28;20058;-78
2023/12/01 02:00:55;;;;;;;16.15;12.43;;;2.90;86.10;;;;;;4995932;28;20088;-78
2023/12/01 02:03:21;;;;;;;15.30;12.05;;;2.90;86.00;;;;;;4995961;28;20076;-77
2023/12/01 02:05:50;;;;;;;18.55;13.40;;;2.80;85.80;;;;;;4995847;28;20033;-77
2023/12/01 02:08:26;;;;;;;14.27;11.00;;;2.80;86.00;;;;;;4995887;28;20019;-78
2023/12/01 02:10:56;;;;;;;16.85;12.35;;;2.70;86.10;;;;;;4995809;28;20383;-77
2023/12/01 02:13:23;;;;;;;14.50;11.60;;;2.70;86.30;;;;;;4995991;28;20100;-78
2023/12/01 02:15:51;;;;;;;18.33;13.65;;;2.70;86.30;;;;;;4996273;28;20026;-78
2023/12/01 02:18:23;;;;;;;13.95;11.52;;;2.70;86.40;;;;;;4996051;28;20467;-76
2023/12/01 02:20:49;;;;;;;14.93;12.52;;;2.80;86.50;;;;;;4995920;28;20023;-76
2023/12/01 02:23:15;;;;;;;17.00;13.05;;;2.80;86.40;;;;;;4996663;28;20511;-76
2023/12/01 02:25:41;;;;;;;15.98;13.20;;;2.90;86.40;;;;;;4999739;28;20034;-76
2023/12/01 02:28:06;;;;;;;16.98;14.13;;;2.90;86.10;;;;;;5006914;28;20043;-76
2023/12/01 02:30:32;;;;;;;18.05;15.20;;;2.90;86.00;;;;;;4999689;28;20031;-76
2023/12/01 02:32:57;;;;;;;18.02;14.68;;;2.90;85.80;;;;;;4997126;28;20030;-76
2023/12/01 02:35:29;;;;;;;21.13;16.67;;;2.90;85.80;;;;;;4998334;28;20030;-76
2023/12/01 02:37:55;;;;;;;18.92;15.52;;;2.90;85.80;;;;;;4998353;28;20459;-76
2023/12/01 02:40:22;;;;;;;19.35;15.63;;;2.90;85.90;;;;;;4997779;28;20180;-76
2023/12/01 02:42:50;;;;;;;18.23;15.55;;;2.90;85.90;;;;;;4994994;28;20046;-76
2023/12/01 02:45:16;;;;;;;18.70;14.43;;;2.90;85.80;;;;;;4994940;28;20069;-75
2023/12/01 02:47:47;;;;;;;17.90;14.00;;;2.90;85.70;;;;;;4994942;28;20240;-76
2023/12/01 02:50:13;;;;;;;17.70;14.05;;;2.80;85.70;;;;;;4991908;28;20033;-76
2023/12/01 02:52:41;;;;;;;17.83;14.20;;;2.80;85.80;;;;;;4994124;28;20026;-76
2023/12/01 02:55:08;;;;;;;20.40;14.63;;;2.70;86.10;;;;;;4994781;28;20026;-76
2023/12/01 02:57:41;;;;;;;17.58;13.10;;;2.60;86.70;;;;;;4999691;28;20030;-76
2023/12/01 03:00:14;;;;;;;17.80;12.55;;;2.50;87.00;;;;;;5007928;28;20034;-76
2023/12/01 03:02:41;;;;;;;16.23;14.45;;;2.50;87.40;;;;;;4984845;28;20424;-76
2023/12/01 03:05:08;;;;;;;17.00;14.00;;;2.40;87.70;;;;;;4995197;28;20475;-75
2023/12/01 03:07:33;;;;;;;18.27;14.50;;;2.40;87.80;;;;;;4994518;28;20026;-78
2023/12/01 03:09:59;;;;;;;13.10;11.60;;;2.30;87.80;;;;;;4994433;28;20023;-76
2023/12/01 03:12:24;;;;;;;13.15;11.75;;;2.30;87.80;;;;;;4994392;28;20614;-76
2023/12/01 03:14:50;;;;;;;14.27;12.15;;;2.40;87.80;;;;;;4994431;28;20530;-76
2023/12/01 03:17:15;;;;;;;12.32;10.02;;;2.30;87.90;;;;;;4994332;28;20031;-74
2023/12/01 03:19:41;;;;;;;14.52;9.77;;;2.20;88.20;;;;;;4994228;28;20535;-75
2023/12/01 03:22:07;;;;;;;14.07;10.30;;;2.20;88.40;;;;;;4994245;28;20480;-75
2023/12/01 03:24:32;;;;;;;11.38;10.18;;;2.30;88.60;;;;;;4994116;28;20038;-75
2023/12/01 03:26:58;;;;;;;12.25;10.57;;;2.40;88.40;;;;;;4994028;28;20030;-75
2023/12/01 03:29:24;;;;;;;11.15;9.98;;;2.40;88.20;;;;;;4976573;28;20125;-76
2023/12/01 03:31:49;;;;;;;12.13;10.35;;;2.40;88.10;;;;;;4994234;28;20529;-76
2023/12/01 03:34:15;;;;;;;10.43;9.32;;;2.40;88.10;;;;;;4994101;28;20476;-76
2023/12/01 03:36:40;;;;;;;9.88;8.85;;;2.50;88.10;;;;;;4993991;28;20364;-76
2023/12/01 03:39:06;;;;;;;9.90;8.45;;;2.50;88.00;;;;;;4993988;28;20116;-76
2023/12/01 03:41:32;;;;;;;9.15;8.15;;;2.50;87.70;;;;;;4993903;28;20031;-76
2023/12/01 03:43:58;;;;;;;9.63;7.95;;;2.60;87.70;;;;;;4993806;28;20027;-76
2023/12/01 03:46:23;;;;;;;8.95;7.75;;;2.60;87.70;;;;;;4993890;28;20037;-76
2023/12/01 03:48:49;;;;;;;10.07;7.95;;;2.60;87.50;;;;;;4993801;28;20031;-76
2023/12/01 03:51:14;;;;;;;8.63;7.28;;;2.70;87.50;;;;;;4993837;28;20105;-76
2023/12/01 03:53:40;;;;;;;8.05;7.20;;;2.70;87.40;;;;;;4993861;28;20097;-76
2023/12/01 03:56:06;;;;;;;7.80;6.75;;;2.80;87.30;;;;;;4976414;28;20030;-76
2023/12/01 03:58:32;;;;;;;7.80;6.85;;;2.80;86.90;;;;;;4976282;28;20394;-76
2023/12/01 04:00:57;;;;;;;8.98;7.70;;;2.80;86.80;;;;;;4993736;28;20030;-76
2023/12/01 04:03:24;;;;;;;10.57;9.02;;;2.90;86.80;;;;;;4993593;28;20030;-79
2023/12/01 04:05:50;;;;;;;13.93;10.85;;;2.70;86.50;;;;;;4985139;28;20034;-77
2023/12/01 04:08:15;;;;;;;12.68;10.80;;;2.60;86.70;;;;;;5002605;28;20486;-77
2023/12/01 04:10:42;;;;;;;14.13;11.02;;;2.60;87.30;;;;;;5000886;28;20027;-78
2023/12/01 04:13:08;;;;;;;13.13;10.63;;;2.60;87.40;;;;;;4994826;28;20042;-77
2023/12/01 04:15:36;;;;;;;13.93;10.85;;;2.60;87.40;;;;;;4993516;28;20022;-77
2023/12/01 04:18:06;;;;;;;13.40;11.57;;;2.60;87.20;;;;;;4993477;28;20022;-78
2023/12/01 04:20:41;;;;;;;12.80;10.90;;;2.60;87.10;;;;;;4993429;28;20014;-78
2023/12/01 04:23:10;;;;;;;;;;;2.70;87.10;;;;;;4993956;28;20030;-78
2023/12/01 04:25:40;;;;;;;11.40;10.18;;;2.70;86.90;;;;;;4993302;28;19961;-78
2023/12/01 04:28:07;;;;;;;11.15;9.98;;;2.60;86.80;;;;;;4975942;28;20042;-75
2023/12/01 04:30:34;;;;;;;14.15;12.07;;;2.50;86.90;;;;;;4993374;28;20031;-76
2023/12/01 04:33:00;;;;;;;12.63;10.98;;;2.50;87.00;;;;;;4993333;28;20026;-76
2023/12/01 04:35:28;;;;;;;14.48;11.88;;;2.40;87.20;;;;;;4993349;28;20022;-77
2023/12/01 04:37:54;;;;;;;14.48;11.50;;;2.40;87.30;;;;;;4993173;28;20100;-75
2023/12/01 04:40:20;;;;;;;14.20;11.93;;;2.40;87.70;;;;;;4975941;28;20428;-76
2023/12/01 04:42:47;;;;;;;15.35;12.32;;;2.30;88.10;;;;;;4993190;28;20065;-75
2023/12/01 04:45:20;;;;;;;14.93;11.77;;;2.20;88.40;;;;;;4975737;28;20122;-75
2023/12/01 04:47:50;;;;;;;16.02;11.32;;;2.20;88.40;;;;;;4975699;28;20042;-75
2023/12/01 04:50:18;;;;;;;12.35;9.43;;;2.30;89.50;;;;;;4993145;28;20026;-77
2023/12/01 04:52:48;;;;;;;13.88;10.95;;;2.30;88.60;;;;;;4993031;28;20031;-76
2023/12/01 04:55:16;;;;;;;13.63;10.25;;;2.30;88.50;;;;;;4993076;28;20106;-76
2023/12/01 04:57:42;;;;;;;14.48;11.27;;;2.40;88.40;;;;;;4975560;28;20022;-76
2023/12/01 05:00:22;;;;;;;15.95;12.25;;;2.40;88.40;;;;;;4992870;28;20027;-76
2023/12/01 05:03:17;;;;;;;14.95;10.82;;;2.40;88.20;;;;;;4993045;28;20422;-75
2023/12/01 05:05:43;;;;;;;12.52;10.05;;;2.50;88.10;;;;;;4976090;28;20113;-75
2023/12/01 05:08:10;;;;;;;11.90;8.63;;;2.40;87.70;;;;;;4992951;28;20511;-76
2023/12/01 05:10:37;;;;;;;12.18;10.05;;;2.50;87.80;;;;;;4992903;28;20423;-77
2023/12/01 05:13:04;;;;;;;12.27;9.88;;;2.50;87.90;;;;;;4992348;28;20050;-75
2023/12/01 05:15:32;;;;;;;12.82;9.55;;;2.60;87.70;;;;;;4976880;28;20026;-76
2023/12/01 05:18:06;;;;;;;14.38;11.07;;;2.60;87.50;;;;;;4994837;28;20027;-76
2023/12/01 05:20:33;;;;;;;18.75;13.90;;;2.60;87.40;;;;;;4995167;28;20102;-77
2023/12/01 05:23:00;;;;;;;15.68;11.93;;;2.60;87.30;;;;;;4995010;28;20076;-78
2023/12/01 05:25:27;;;;;;;16.40;12.88;;;2.60;87.30;;;;;;4995184;28;20391;-76
2023/12/01 05:27:55;;;;;;;13.05;11.32;;;2.60;87.30;;;;;;4995035;28;20033;-76
2023/12/01 05:30:27;;;;;;;11.55;10.02;;;2.60;87.30;;;;;;4995089;28;20029;-76
2023/12/01 05:32:54;;;;;;;13.00;10.48;;;2.60;87.20;;;;;;4995153;28;20030;-77
2023/12/01 05:35:20;;;;;;;13.38;10.77;;;2.70;87.10;;;;;;4995831;28;20176;-77
2023/12/01 05:37:51;;;;;;;13.95;10.85;;;2.70;87.00;;;;;;4996504;28;20478;-77
2023/12/01 05:40:20;;;;;;;12.48;10.40;;;2.70;87.00;;;;;;4995186;28;20053;-77
2023/12/01 05:42:47;;;;;;;13.02;11.05;;;2.70;86.90;;;;;;4995106;28;20014;-77
2023/12/01 05:45:14;;;;;;;11.20;9.52;;;2.70;86.80;;;;;;4978174;28;20034;-77
2023/12/01 05:47:44;;;;;;;13.38;10.40;;;2.70;86.80;;;;;;4977465;28;20030;-77
2023/12/01 05:50:14;;;;;;;11.55;9.35;;;2.70;86.90;;;;;;5000432;28;20034;-76
2023/12/01 05:52:45;;;;;;;12.35;9.85;;;2.70;86.90;;;;;;4994998;28;20451;-76
2023/12/01 05:55:15;;;;;;;13.25;10.82;;;2.70;86.90;;;;;;4977269;28;20065;-77
2023/12/01 05:57:42;;;;;;;18.58;13.88;;;2.70;86.80;;;;;;4994805;28;20439;-76
2023/12/01 06:00:12;;;;;;;15.93;12.73;;;2.60;86.50;;;;;;4994759;28;20026;-76
2023/12/01 06:02:40;;;;;;;17.33;13.23;;;2.60;86.80;;;;;;4994524;28;20112;-76
2023/12/01 06:05:06;;;;;;;20.42;14.75;;;2.60;86.90;;;;;;4994510;28;20498;-76
2023/12/01 06:07:32;;;;;;;20.77;14.43;;;2.60;86.90;;;;;;4994833;28;20022;-76
2023/12/01 06:09:58;;;;;;;49.78;27.88;;;2.70;87.00;;;;;;4976952;28;20084;-76
2023/12/01 06:12:24;;;;;;;69.88;36.20;;;2.70;86.90;;;;;;4958701;28;1034584;-77
2023/12/01 06:14:49;;;;;;;73.03;35.90;;;2.70;86.90;;;;;;4995437;28;20045;-76
2023/12/01 06:17:15;;;;;;;42.85;23.90;;;2.70;86.80;;;;;;4995107;28;20026;-76
2023/12/01 06:19:40;;;;;;;23.42;15.00;;;2.70;86.80;;;;;;4995216;28;20026;-76
2023/12/01 06:22:07;;;;;;;18.60;14.02;;;2.70;86.70;;;;;;4995011;28;20494;-76
2023/12/01 06:24:33;;;;;;;16.58;13.63;;;2.70;86.60;;;;;;4977555;28;20125;-76
2023/12/01 06:27:00;;;;;;;18.88;13.30;;;2.70;86.50;;;;;;4993982;28;20110;-75
2023/12/01 06:29:26;;;;;;;15.68;13.77;;;2.70;86.50;;;;;;4994951;28;20022;-76
2023/12/01 06:31:51;;;;;;;13.35;11.93;;;2.70;86.70;;;;;;4994871;28;20025;-75
2023/12/01 06:34:17;;;;;;;15.05;11.85;;;2.60;86.80;;;;;;4995049;28;20062;-76
2023/12/01 06:36:42;;;;;;;15.93;12.32;;;2.60;86.70;;;;;;4994867;28;20057;-76
2023/12/01 06:39:10;;;;;;;17.08;12.63;;;2.60;86.70;;;;;;4994481;28;20054;-76
2023/12/01 06:41:37;;;;;;;15.40;12.10;;;2.60;86.70;;;;;;4994880;28;20019;-75
2023/12/01 06:44:05;;;;;;;13.75;10.90;;;2.60;86.80;;;;;;4994855;28;20031;-78
2023/12/01 06:46:31;;;;;;;15.68;11.85;;;2.60;86.70;;;;;;4994887;28;20057;-78
2023/12/01 06:48:57;;;;;;;15.07;11.10;;;2.60;86.70;;;;;;4994774;28;20030;-78
2023/12/01 06:51:22;;;;;;;12.90;10.43;;;2.60;86.90;;;;;;4995281;28;20049;-77
2023/12/01 06:53:48;;;;;;;11.73;9.38;;;2.60;86.70;;;;;;4995156;28;20569;-76
2023/12/01 06:56:13;;;;;;;13.50;10.10;;;2.50;86.90;;;;;;4994754;28;20035;-76
2023/12/01 06:58:39;;;;;;;11.25;9.57;;;2.60;86.90;;;;;;4994612;28;20018;-76
2023/12/01 07:01:05;;;;;;;11.82;9.27;;;2.60;86.80;;;;;;4994730;28;20033;-76
2023/12/01 07:03:31;;;;;;;12.25;9.90;;;2.60;86.60;;;;;;4994689;28;20089;-76
2023/12/01 07:05:56;;;;;;;10.27;8.27;;;2.60;86.50;;;;;;4994094;28;20026;-76
2023/12/01 07:08:22;;;;;;;10.38;9.18;;;2.60;86.90;;;;;;4994403;28;20053;-76
2023/12/01 07:10:47;;;;;;;10.90;9.50;;;2.60;86.50;;;;;;4994787;28;20479;-76
2023/12/01 07:13:13;;;;;;;15.90;10.73;;;2.60;86.50;;;;;;4998390;28;20058;-76
2023/12/01 07:15:39;;;;;;;14.00;9.57;;;2.70;86.50;;;;;;4994471;28;20081;-76
2023/12/01 07:18:05;;;;;;;15.00;9.95;;;2.70;86.60;;;;;;4976752;28;20554;-76
2023/12/01 07:20:33;;;;;;;13.18;10.50;;;2.70;86.30;;;;;;4994044;28;20101;-76
2023/12/01 07:22:59;;;;;;;17.23;11.10;;;2.70;86.40;;;;;;4993898;28;20029;-76
2023/12/01 07:25:25;;;;;;;14.93;9.75;;;2.70;87.30;;;;;;4993954;28;20038;-76
2023/12/01 07:28:00;;;;;;;13.50;9.77;;;2.70;86.50;;;;;;4993977;28;20061;-76
2023/12/01 07:30:29;;;;;;;12.68;9.30;;;2.80;86.40;;;;;;4994125;28;20389;-76
2023/12/01 07:32:56;;;;;;;13.15;10.02;;;2.80;86.30;;;;;;4993820;28;20046;-76
2023/12/01 07:35:21;;;;;;;12.68;8.88;;;2.80;85.90;;;;;;4993997;28;20034;-76
2023/12/01 07:37:48;;;;;;;11.05;8.70;;;2.80;86.10;;;;;;4993683;28;20033;-75
2023/12/01 07:40:19;;;;;;;12.90;8.98;;;2.80;86.10;;;;;;4993875;28;20046;-78
2023/12/01 07:42:45;;;;;;;14.07;9.13;;;2.80;86.10;;;;;;4993914;28;20022;-76
2023/12/01 07:45:15;;;;;;;15.93;10.60;;;2.90;86.00;;;;;;4993842;28;20116;-76
2023/12/01 07:47:40;;;;;;;15.52;11.13;;;2.90;85.60;;;;;;4993749;28;20021;-76
2023/12/01 07:50:07;;;;;;;14.60;10.93;;;2.90;85.50;;;;;;4993538;28;20030;-76
2023/12/01 07:52:33;;;;;;;17.95;12.70;;;2.90;85.60;;;;;;4993464;28;20097;-76
2023/12/01 07:54:59;;;;;;;15.57;12.15;;;2.90;85.60;;;;;;4993499;28;20054;-76
2023/12/01 07:57:24;;;;;;;15.35;10.60;;;2.80;85.60;;;;;;4993635;28;20014;-76
2023/12/01 07:59:50;;;;;;;13.45;9.88;;;2.80;85.70;;;;;;4993638;28;20160;-75
2023/12/01 08:02:15;;;;;;;15.05;9.98;;;2.70;85.80;;;;;;4993592;28;20053;-77
2023/12/01 08:04:41;;;;;;;13.07;9.05;;;2.80;85.90;;;;;;4993463;28;20027;-76
2023/12/01 08:07:07;;;;;;;11.25;8.73;;;2.70;86.10;;;;;;4993362;28;20033;-77
2023/12/01 08:09:33;;;;;;;10.82;8.75;;;2.80;86.10;;;;;;4993779;28;20014;-77
2023/12/01 08:11:59;;;;;;;12.63;10.05;;;2.80;86.00;;;;;;4993496;28;20037;-77
2023/12/01 08:14:27;;;;;;;10.32;8.52;;;2.80;85.70;;;;;;4994431;28;20031;-77
2023/12/01 08:16:53;;;;;;;12.35;10.02;;;2.80;85.60;;;;;;4976071;28;20065;-75
2023/12/01 08:19:18;;;;;;;8.38;7.57;;;2.90;85.60;;;;;;4993247;28;20364;-77
2023/12/01 08:21:44;;;;;;;7.88;6.82;;;2.90;85.20;;;;;;4993429;28;20022;-77
2023/12/01 08:24:10;;;;;;;6.88;6.18;;;2.90;85.30;;;;;;4993186;28;20035;-75
2023/12/01 08:26:37;;;;;;;8.13;6.97;;;2.90;85.20;;;;;;4993130;28;20026;-76
2023/12/01 08:29:03;;;;;;;7.22;6.45;;;2.80;84.80;;;;;;4993176;28;20371;-76
2023/12/01 08:31:30;;;;;;;8.13;6.30;;;2.80;85.80;;;;;;4993394;28;20022;-76
2023/12/01 08:33:56;;;;;;;9.23;6.00;;;2.80;84.90;;;;;;4993275;28;20113;-75
2023/12/01 08:36:22;;;;;;;6.03;5.43;;;2.80;85.00;;;;;;4998818;28;20050;-76
2023/12/01 08:38:47;;;;;;;9.18;6.38;;;2.90;85.20;;;;;;4993292;28;20026;-76
2023/12/01 08:41:13;;;;;;;7.90;6.47;;;2.90;84.70;;;;;;4993291;28;20030;-76
2023/12/01 08:43:38;;;;;;;5.65;4.90;;;2.90;84.60;;;;;;4992934;28;20022;-76
2023/12/01 08:46:04;;;;;;;13.48;6.40;;;2.90;84.30;;;;;;4975500;28;20026;-79
2023/12/01 08:48:30;;;;;;;8.48;7.03;;;3.40;92.60;;;;;;4993210;28;20030;-73
2023/12/01 08:50:55;;;;;;;7.90;6.57;;;3.70;94.50;;;;;;4996810;28;20077;-74
2023/12/01 08:53:22;;;;;;;7.30;5.95;;;3.90;93.00;;;;;;4997132;28;20023;-75
2023/12/01 08:55:48;;;;;;;7.63;5.85;;;4.10;89.90;;;;;;4997158;28;20149;-79
2023/12/01 08:58:14;;;;;;;7.88;6.03;;;4.30;86.30;;;;;;4998555;28;20075;-74
2023/12/01 09:00:40;;;;;;;6.95;5.90;;;4.50;82.70;;;;;;4996977;28;20034;-73
2023/12/01 09:03:06;;;;;;;6.80;5.18;;;4.60;81.40;;;;;;4996839;28;20022;-73
2023/12/01 09:05:32;;;;;;;5.70;5.00;;;4.70;80.20;;;;;;4996382;28;20366;-75
2023/12/01 09:07:59;;;;;;;6.90;5.82;;;4.80;79.10;;;;;;4997927;28;20019;-86
2023/12/01 09:10:26;;;;;;;6.70;5.25;;;4.80;77.90;;;;;;4980362;28;20061;-73
2023/12/01 09:12:52;;;;;;;5.68;4.95;;;4.70;77.10;;;;;;4996551;28;20039;-73
2023/12/01 09:15:18;;;;;;;5.45;4.82;;;4.80;77.70;;;;;;4997813;28;20034;-73
2023/12/01 09:17:43;;;;;;;6.32;5.25;;;4.80;77.50;;;;;;4996524;28;20564;-73
2023/12/01 09:20:09;;;;;;;7.50;5.93;;;4.90;77.20;;;;;;4996750;28;20038;-74
2023/12/01 09:22:38;;;;;;;6.45;5.80;;;4.90;76.60;;;;;;4996977;28;20026;-74
2023/12/01 09:25:04;;;;;;;6.20;4.72;;;5.00;76.40;;;;;;4996392;28;20076;-74
2023/12/01 09:27:30;;;;;;;6.50;5.22;;;5.20;76.60;;;;;;4996311;28;20038;-76
2023/12/01 09:29:56;;;;;;;5.28;4.68;;;5.40;75.00;;;;;;4996157;28;20101;-73
2023/12/01 09:32:22;;;;;;;4.97;4.40;;;5.50;74.70;;;;;;4996443;28;20495;-75
2023/12/01 09:34:47;;;;;;;4.78;4.28;;;5.50;74.10;;;;;;4996054;28;20034;-78
2023/12/01 09:37:13;;;;;;;5.50;5.00;;;5.70;73.70;;;;;;4996036;28;20034;-76
2023/12/01 09:39:39;;;;;;;5.28;4.78;;;5.40;72.30;;;;;;4995823;28;20041;-76
2023/12/01 09:42:06;;;;;;;5.72;4.93;;;5.10;73.80;;;;;;4995786;28;20023;-75
2023/12/01 09:44:33;;;;;;;4.93;4.43;;;4.80;75.20;;;;;;4995390;28;20050;-76
2023/12/01 09:47:00;;;;;;;5.05;4.40;;;4.80;75.50;;;;;;4978375;28;20030;-77
2023/12/01 09:49:32;;;;;;;5.30;4.57;;;4.70;75.40;;;;;;4996002;28;20026;-77
2023/12/01 09:51:58;;;;;;;6.55;5.68;;;4.70;75.70;;;;;;4995955;28;20022;-77
2023/12/01 09:54:23;;;;;;;6.65;5.72;;;4.50;75.80;;;;;;4995974;28;20096;-77
2023/12/01 09:56:49;;;;;;;7.07;5.70;;;4.40;75.80;;;;;;4995710;28;20093;-77
2023/12/01 09:59:16;;;;;;;8.07;7.28;;;4.20;76.40;;;;;;4995676;28;20052;-76
2023/12/01 10:01:42;;;;;;;8.27;7.47;;;3.90;77.60;;;;;;4994925;28;20064;-77
2023/12/01 10:04:08;;;;;;;10.00;7.85;;;3.60;79.80;;;;;;4994543;28;20542;-77
2023/12/01 10:06:37;;;;;;;7.47;6.68;;;3.50;80.00;;;;;;4995116;28;20432;-77
2023/12/01 10:09:03;;;;;;;7.70;6.90;;;3.50;80.10;;;;;;4995356;28;20022;-77
2023/12/01 10:11:28;;;;;;;9.57;8.57;;;3.60;80.10;;;;;;4995343;28;20030;-77
2023/12/01 10:13:54;;;;;;;8.02;7.20;;;3.60;80.30;;;;;;4995217;28;20522;-75
2023/12/01 10:16:23;;;;;;;8.55;7.50;;;3.40;80.60;;;;;;4977666;28;20467;-76
2023/12/01 10:18:59;;;;;;;8.88;6.47;;;3.50;80.60;;;;;;4977432;28;20026;-76
2023/12/01 10:21:45;;;;;;;10.32;8.00;;;3.50;80.70;;;;;;4995410;28;20053;-77
2023/12/01 10:24:15;;;;;;;7.40;6.45;;;3.50;80.80;;;;;;4995101;28;20027;-77
2023/12/01 10:26:42;;;;;;;8.75;5.82;;;3.50;80.90;;;;;;4995288;28;20042;-76
2023/12/01 10:29:31;;;;;;;9.27;7.55;;;3.50;80.70;;;;;;4995533;28;20042;-76
2023/12/01 10:32:03;;;;;;;8.30;7.07;;;3.70;80.70;;;;;;4995298;28;20034;-76
2023/12/01 10:34:28;;;;;;;6.85;6.10;;;3.60;80.40;;;;;;4995024;28;20022;-76
2023/12/01 10:36:54;;;;;;;6.72;5.60;;;3.70;80.40;;;;;;4995174;28;20057;-77
2023/12/01 10:39:25;;;;;;;6.68;5.97;;;3.80;80.20;;;;;;4977508;28;20030;-76
2023/12/01 10:41:53;;;;;;;7.72;6.88;;;3.90;80.10;;;;;;4995349;28;20046;-76
2023/12/01 10:44:22;;;;;;;6.88;6.15;;;4.00;79.80;;;;;;4994822;28;20113;-76
2023/12/01 10:46:48;;;;;;;7.43;6.60;;;4.00;79.40;;;;;;4994877;28;20372;-77
2023/12/01 10:49:17;;;;;;;7.18;6.47;;;4.00;79.20;;;;;;4994570;28;20057;-76
2023/12/01 10:51:45;;;;;;;9.75;8.38;;;4.00;79.20;;;;;;4994526;28;20037;-75
2023/12/01 10:54:12;;;;;;;10.68;9.27;;;4.00;79.20;;;;;;4994810;28;20432;-77
2023/12/01 10:56:54;;;;;;;9.57;8.25;;;4.00;79.20;;;;;;4977166;28;20352;-77
2023/12/01 10:59:22;;;;;;;8.07;7.28;;;4.00;79.20;;;;;;4994597;28;20026;-77
2023/12/01 11:01:49;;;;;;;7.38;6.68;;;4.00;79.30;;;;;;4994340;28;20096;-77
2023/12/01 11:04:22;;;;;;;7.72;6.35;;;3.90;79.20;;;;;;4994198;28;20537;-77
2023/12/01 11:07:07;;;;;;;6.45;5.78;;;3.90;79.10;;;;;;4994220;28;20018;-78
2023/12/01 11:09:57;;;;;;;6.28;5.72;;;3.90;79.30;;;;;;4976639;28;20383;-78
2023/12/01 11:12:32;;;;;;;7.55;6.70;;;3.90;79.50;;;;;;4993694;28;20048;-77
2023/12/01 11:15:13;;;;;;;7.53;6.82;;;4.00;79.40;;;;;;4997751;28;20030;-77
2023/12/01 11:17:39;;;;;;;7.78;6.30;;;4.00;79.30;;;;;;4994951;28;20041;-76
2023/12/01 11:20:31;;;;;;;8.13;6.80;;;4.00;79.40;;;;;;4994011;28;20113;-77
2023/12/01 11:23:08;;;;;;;9.57;7.60;;;4.10;79.50;;;;;;4993754;28;20097;-76
2023/12/01 11:25:50;;;;;;;9.25;8.02;;;4.10;79.30;;;;;;4994219;28;20042;-77
2023/12/01 11:28:43;;;;;;;9.50;8.05;;;4.20;79.20;;;;;;4976547;28;20557;-77
2023/12/01 11:31:19;;;;;;;9.70;8.02;;;4.20;79.10;;;;;;4994017;28;20018;-76
2023/12/01 11:33:50;;;;;;;8.93;8.07;;;4.20;79.00;;;;;;4995139;28;20033;-75
2023/12/01 11:36:28;;;;;;;11.20;10.10;;;4.10;79.10;;;;;;4993932;28;20018;-76
2023/12/01 11:39:20;;;;;;;11.77;10.20;;;3.90;79.20;;;;;;4993731;28;20555;-74
2023/12/01 11:42:09;;;;;;;13.80;11.75;;;3.80;79.80;;;;;;4993692;28;20471;-75
2023/12/01 11:44:40;;;;;;;13.05;10.32;;;3.60;80.00;;;;;;4985506;28;20050;-75
2023/12/01 11:47:12;;;;;;;13.23;10.73;;;3.50;80.50;;;;;;4993489;28;20084;-75
2023/12/01 11:49:44;;;;;;;12.50;10.07;;;3.50;81.60;;;;;;4993601;28;20109;-77
2023/12/01 11:52:12;;;;;;;12.35;10.77;;;3.40;81.30;;;;;;4993021;28;20597;-76
2023/12/01 11:54:37;;;;;;;17.98;14.05;;;3.40;81.40;;;;;;4993396;28;20156;-76
2023/12/01 11:57:08;;;;;;;17.02;13.68;;;3.30;81.60;;;;;;4993411;28;20447;-76
2023/12/01 11:59:34;;;;;;;13.80;10.85;;;3.30;81.80;;;;;;4993282;28;20018;-77
2023/12/01 12:02:00;;;;;;;10.45;9.35;;;3.40;81.80;;;;;;4993266;28;20048;-76
2023/12/01 12:04:25;;;;;;;9.20;8.23;;;3.50;81.80;;;;;;4992967;28;20396;-75
2023/12/01 12:06:52;;;;;;;11.15;9.95;;;3.50;81.40;;;;;;4993015;28;20038;-75
2023/12/01 12:09:18;;;;;;;9.98;8.63;;;3.60;81.10;;;;;;4994421;28;20050;-76
2023/12/01 12:11:55;;;;;;;8.95;7.93;;;3.60;81.00;;;;;;4978343;28;20037;-77
2023/12/01 12:14:25;;;;;;;10.38;9.35;;;3.60;81.20;;;;;;4993905;28;20122;-76
2023/12/01 12:16:51;;;;;;;9.32;8.32;;;3.60;81.00;;;;;;4993407;28;20368;-76
2023/12/01 12:19:21;;;;;;;9.70;8.50;;;3.60;80.80;;;;;;4993365;28;20450;-76
2023/12/01 12:21:48;;;;;;;11.77;9.18;;;3.70;80.90;;;;;;4993347;28;20022;-75
2023/12/01 12:24:14;;;;;;;10.55;9.13;;;3.70;80.90;;;;;;4992031;28;20026;-74
2023/12/01 12:26:40;;;;;;;10.23;8.98;;;3.60;80.60;;;;;;4993246;28;20031;-76
2023/12/01 12:29:07;;;;;;;12.82;9.60;;;3.60;80.60;;;;;;4993402;28;20073;-76
2023/12/01 12:31:38;;;;;;;9.20;8.20;;;3.60;80.70;;;;;;4993291;28;20113;-77
2023/12/01 12:34:08;;;;;;;10.77;9.35;;;3.50;80.50;;;;;;4993442;28;20022;-75
2023/12/01 12:36:37;;;;;;;9.23;8.15;;;3.50;80.70;;;;;;4997786;28;20092;-74
2023/12/01 12:39:05;;;;;;;8.45;7.20;;;3.50;80.70;;;;;;4993527;28;20018;-74
2023/12/01 12:41:32;;;;;;;9.65;7.70;;;3.40;80.90;;;;;;4992943;28;20032;-74
2023/12/01 12:44:00;;;;;;;10.35;7.80;;;3.40;81.00;;;;;;4992840;28;20054;-75
2023/12/01 12:46:28;;;;;;;8.93;7.07;;;3.50;81.40;;;;;;4992825;28;20031;-75
2023/12/01 12:49:06;;;;;;;8.98;7.63;;;3.60;81.40;;;;;;4992984;28;20412;-75